Time;durP1;ratioP1;P1;durP2;ratioP2;P2;SDS_P1;SDS_P2;PMS_P1;PMS_P2;Temp;Humidity;BMP_temperature;BMP_pressure;BME280_temperature;BME280_humidity;BME280_pressure;Samples;Min_cycle;Max_cycle;Signal;HPM_P1;HPM_P2
2021/12/21 00:01:57;;;;;;;6.05;2.58;;;;;;;;;;4899089;29;20061;-67
2021/12/21 00:04:23;;;;;;;3.38;2.03;;;;;;;;;;4899170;29;20499;-69
2021/12/21 00:06:48;;;;;;;4.40;2.17;;;;;;;;;;4898936;29;20104;-66
2021/12/21 00:09:15;;;;;;;4.78;2.50;;;;;;;;;;4898827;29;20488;-67
2021/12/21 00:11:40;;;;;;;6.13;2.90;;;;;;;;;;4898754;29;20119;-67
2021/12/21 00:14:24;;;;;;;6.63;2.33;;;;;;;;;;4898980;29;20480;-66
2021/12/21 00:22:07;;;;;;;4.78;2.28;;;;;;;;;;4899213;29;20041;-66
2021/12/21 00:24:44;;;;;;;4.25;2.60;;;;;;;;;;4898605;29;20053;-66
2021/12/21 00:27:10;;;;;;;5.15;2.72;;;;;;;;;;4898710;29;20075;-68
2021/12/21 00:29:36;;;;;;;6.70;3.00;;;;;;;;;;4898383;29;20060;-67
2021/12/21 00:32:02;;;;;;;7.57;3.75;;;;;;;;;;4897879;29;20044;-68
2021/12/21 00:34:27;;;;;;;6.43;2.53;;;;;;;;;;4897843;29;20029;-67
2021/12/21 00:36:53;;;;;;;6.80;3.17;;;;;;;;;;4898598;29;20040;-66
2021/12/21 00:39:19;;;;;;;8.55;3.83;;;;;;;;;;4898551;29;20653;-67
2021/12/21 00:41:45;;;;;;;7.68;3.55;;;;;;;;;;4898389;29;20024;-67
2021/12/21 00:44:10;;;;;;;9.25;4.47;;;;;;;;;;4898082;29;20036;-67
2021/12/21 00:46:38;;;;;;;7.82;3.67;;;;;;;;;;4898292;29;20075;-66
2021/12/21 00:49:13;;;;;;;7.93;3.38;;;;;;;;;;4897374;29;20477;-67
2021/12/21 00:51:41;;;;;;;8.05;4.22;;;;;;;;;;4894384;29;20040;-67
2021/12/21 00:54:07;;;;;;;8.77;3.50;;;;;;;;;;4912273;29;20028;-66
2021/12/21 00:56:33;;;;;;;9.50;5.28;;;;;;;;;;4897707;29;20033;-67
2021/12/21 00:58:59;;;;;;;8.48;4.63;;;;;;;;;;4898376;29;20473;-66
2021/12/21 01:01:25;;;;;;;6.88;3.42;;;;;;;;;;4897884;29;20057;-66
2021/12/21 01:03:53;;;;;;;8.30;3.78;;;;;;;;;;4899829;29;20450;-67
2021/12/21 01:11:34;;;;;;;8.88;4.93;;;;;;;;;;4899786;29;20052;-66
2021/12/21 01:16:48;;;;;;;7.07;4.63;;;;;;;;;;4898557;29;20104;-66
2021/12/21 01:19:22;;;;;;;6.00;3.22;;;;;;;;;;4899471;29;20408;-67
2021/12/21 01:22:05;;;;;;;9.05;3.33;;;;;;;;;;4899494;29;20120;-67
2021/12/21 01:27:23;;;;;;;6.25;3.78;;;;;;;;;;4899399;29;20046;-66
2021/12/21 01:30:04;;;;;;;6.18;3.92;;;;;;;;;;4899364;29;20041;-67
2021/12/21 01:35:30;;;;;;;6.13;3.20;;;;;;;;;;4898611;29;20053;-67
2021/12/21 01:38:06;;;;;;;8.07;3.30;;;;;;;;;;4899483;29;20039;-67
2021/12/21 01:43:33;;;;;;;6.55;3.15;;;;;;;;;;4899143;29;20032;-67
2021/12/21 01:51:28;;;;;;;6.22;3.38;;;;;;;;;;4897653;29;20047;-67
2021/12/21 01:53:54;;;;;;;6.70;3.28;;;;;;;;;;4897816;29;20498;-67
2021/12/21 01:56:21;;;;;;;9.95;3.67;;;;;;;;;;4898948;29;20041;-67
2021/12/21 01:58:48;;;;;;;6.88;3.50;;;;;;;;;;4898603;29;20032;-67
2021/12/21 02:01:17;;;;;;;7.13;2.78;;;;;;;;;;4898969;29;20084;-67
2021/12/21 02:03:47;;;;;;;7.00;3.58;;;;;;;;;;4899013;29;20506;-67
2021/12/21 02:06:16;;;;;;;7.40;2.70;;;;;;;;;;4898775;29;20041;-67
2021/12/21 02:08:42;;;;;;;4.97;3.10;;;;;;;;;;4898029;29;20053;-67
2021/12/21 02:11:10;;;;;;;5.75;3.10;;;;;;;;;;4898047;29;20080;-68
2021/12/21 02:13:37;;;;;;;6.53;3.63;;;;;;;;;;4898701;29;20044;-67
2021/12/21 02:16:05;;;;;;;12.77;4.00;;;;;;;;;;4898904;29;20340;-66
2021/12/21 02:23:46;;;;;;;7.70;3.13;;;;;;;;;;4898517;29;20047;-67
2021/12/21 02:29:18;;;;;;;7.00;2.78;;;;;;;;;;4886777;29;20060;-67
2021/12/21 02:31:50;;;;;;;5.97;3.20;;;;;;;;;;4898282;29;20046;-68
2021/12/21 02:34:18;;;;;;;6.97;3.60;;;;;;;;;;4898349;29;20381;-67
2021/12/21 02:36:47;;;;;;;5.68;3.47;;;;;;;;;;4898331;29;20065;-67
2021/12/21 02:39:13;;;;;;;6.10;3.40;;;;;;;;;;4898314;29;20047;-66
2021/12/21 02:41:40;;;;;;;5.07;3.05;;;;;;;;;;4898153;29;20031;-67
2021/12/21 02:44:06;;;;;;;6.35;3.45;;;;;;;;;;4898114;29;20044;-67
2021/12/21 02:46:32;;;;;;;7.20;3.88;;;;;;;;;;4898136;29;20415;-67
2021/12/21 02:48:58;;;;;;;5.82;3.40;;;;;;;;;;4898100;29;20080;-66
2021/12/21 02:51:25;;;;;;;6.38;3.47;;;;;;;;;;4898340;29;20037;-68
2021/12/21 02:53:50;;;;;;;8.60;4.38;;;;;;;;;;4898350;29;20037;-66
2021/12/21 02:56:16;;;;;;;6.70;3.00;;;;;;;;;;4897291;29;20032;-66
2021/12/21 02:58:43;;;;;;;6.40;3.22;;;;;;;;;;4916754;29;20040;-68
2021/12/21 03:01:11;;;;;;;6.82;3.30;;;;;;;;;;4925411;29;20032;-67
2021/12/21 03:03:37;;;;;;;5.10;2.78;;;;;;;;;;4925337;29;20036;-66
2021/12/21 03:06:08;;;;;;;4.95;2.83;;;;;;;;;;4917055;29;20391;-67
2021/12/21 03:08:38;;;;;;;13.52;3.38;;;;;;;;;;4916556;29;20150;-66
2021/12/21 03:11:16;;;;;;;8.70;3.30;;;;;;;;;;4916187;29;20037;-66
2021/12/21 03:16:40;;;;;;;5.03;3.08;;;;;;;;;;4894446;29;20066;-67
2021/12/21 03:19:09;;;;;;;6.95;2.92;;;;;;;;;;4915851;29;20064;-67
2021/12/21 03:21:37;;;;;;;7.28;3.20;;;;;;;;;;4916780;29;20032;-66
2021/12/21 03:24:04;;;;;;;6.35;2.70;;;;;;;;;;4916520;29;20031;-67
2021/12/21 03:26:30;;;;;;;9.45;2.80;;;;;;;;;;4916560;29;20035;-67
2021/12/21 03:28:56;;;;;;;6.18;2.63;;;;;;;;;;4916556;29;20649;-66
2021/12/21 03:31:22;;;;;;;3.97;2.38;;;;;;;;;;4916311;29;20048;-67
2021/12/21 03:33:49;;;;;;;7.28;3.20;;;;;;;;;;4916715;29;20035;-67
2021/12/21 03:36:18;;;;;;;5.07;2.75;;;;;;;;;;4916613;29;20028;-67
2021/12/21 03:39:09;;;;;;;8.90;3.30;;;;;;;;;;4916648;29;20368;-67
2021/12/21 03:41:45;;;;;;;8.18;2.80;;;;;;;;;;4916600;29;20126;-66
2021/12/21 03:44:10;;;;;;;14.93;3.53;;;;;;;;;;4916443;29;20036;-68
2021/12/21 03:46:45;;;;;;;5.60;2.45;;;;;;;;;;4916341;29;20353;-67
2021/12/21 03:51:57;;;;;;;5.57;2.40;;;;;;;;;;4916427;29;20040;-67
2021/12/21 03:54:23;;;;;;;7.22;2.58;;;;;;;;;;4916424;29;20079;-67
2021/12/21 03:56:51;;;;;;;6.57;2.45;;;;;;;;;;4916357;29;20040;-66
2021/12/21 03:59:18;;;;;;;5.55;2.40;;;;;;;;;;4916566;29;20383;-66
2021/12/21 04:01:44;;;;;;;7.45;2.55;;;;;;;;;;4916232;29;20051;-66
2021/12/21 04:04:10;;;;;;;4.93;2.75;;;;;;;;;;4916107;29;20024;-66
2021/12/21 04:06:36;;;;;;;5.93;2.97;;;;;;;;;;4916472;29;20036;-67
2021/12/21 04:09:05;;;;;;;7.15;3.97;;;;;;;;;;4930631;29;20052;-67
2021/12/21 04:11:31;;;;;;;4.75;2.30;;;;;;;;;;4910982;29;20029;-67
2021/12/21 04:13:57;;;;;;;5.32;2.08;;;;;;;;;;4897156;29;20025;-66
2021/12/21 04:16:24;;;;;;;3.83;1.80;;;;;;;;;;4896451;29;20531;-67
2021/12/21 04:18:49;;;;;;;5.97;2.50;;;;;;;;;;4896993;29;20080;-68
2021/12/21 04:21:15;;;;;;;4.95;2.05;;;;;;;;;;4897178;29;20036;-67
2021/12/21 04:23:42;;;;;;;4.50;2.10;;;;;;;;;;4900339;29;20057;-66
2021/12/21 04:26:09;;;;;;;5.75;2.10;;;;;;;;;;4900573;29;20060;-66
2021/12/21 04:28:35;;;;;;;7.28;2.75;;;;;;;;;;4898855;29;20028;-67
2021/12/21 04:31:02;;;;;;;5.22;2.80;;;;;;;;;;4900204;29;20146;-67
2021/12/21 04:33:27;;;;;;;8.02;4.20;;;;;;;;;;4900265;29;20036;-67
2021/12/21 04:35:53;;;;;;;9.90;4.57;;;;;;;;;;4899779;29;20041;-67
2021/12/21 04:40:48;;;;;;;8.65;3.90;;;;;;;;;;4900160;29;20045;-67
2021/12/21 04:43:13;;;;;;;9.10;4.05;;;;;;;;;;4900409;29;20035;-66
2021/12/21 04:45:39;;;;;;;16.33;4.50;;;;;;;;;;4900028;29;20056;-67
2021/12/21 04:48:05;;;;;;;5.72;2.83;;;;;;;;;;4900074;29;20024;-67
2021/12/21 04:50:31;;;;;;;5.70;2.78;;;;;;;;;;4899926;29;20045;-67
2021/12/21 04:52:57;;;;;;;9.05;3.65;;;;;;;;;;4899810;29;20035;-66
2021/12/21 04:55:23;;;;;;;11.52;6.38;;;;;;;;;;4899890;29;20048;-67
2021/12/21 04:57:48;;;;;;;15.75;8.68;;;;;;;;;;4900005;29;20025;-66
2021/12/21 05:00:15;;;;;;;18.73;9.00;;;;;;;;;;4899411;29;20063;-66
2021/12/21 05:02:41;;;;;;;17.65;8.95;;;;;;;;;;4899786;29;20484;-67
2021/12/21 05:05:07;;;;;;;14.77;7.30;;;;;;;;;;4899754;29;20044;-67
2021/12/21 05:07:36;;;;;;;20.83;6.90;;;;;;;;;;4898644;29;20068;-67
2021/12/21 05:10:04;;;;;;;13.93;6.38;;;;;;;;;;4898874;29;20036;-67
2021/12/21 05:12:29;;;;;;;14.52;6.55;;;;;;;;;;4899162;29;20048;-66
2021/12/21 05:14:56;;;;;;;9.88;5.85;;;;;;;;;;4899288;29;20080;-68
2021/12/21 05:17:22;;;;;;;10.10;6.30;;;;;;;;;;4894464;29;20033;-67
2021/12/21 05:19:48;;;;;;;11.55;6.25;;;;;;;;;;4899016;29;20040;-68
2021/12/21 05:22:15;;;;;;;11.85;6.07;;;;;;;;;;4899270;29;20112;-68
2021/12/21 05:24:42;;;;;;;10.77;5.90;;;;;;;;;;4891434;29;20064;-66
2021/12/21 05:27:09;;;;;;;15.93;6.53;;;;;;;;;;4897317;29;20478;-68
2021/12/21 05:29:35;;;;;;;11.48;6.00;;;;;;;;;;4895950;29;20137;-70
2021/12/21 05:32:02;;;;;;;15.30;7.75;;;;;;;;;;4910436;29;20460;-72
2021/12/21 05:34:29;;;;;;;12.05;5.90;;;;;;;;;;4896886;29;20083;-73
2021/12/21 05:36:55;;;;;;;10.30;5.28;;;;;;;;;;4882476;29;20025;-71
2021/12/21 05:39:25;;;;;;;9.20;5.03;;;;;;;;;;4879457;29;20480;-71
2021/12/21 05:41:53;;;;;;;12.38;4.80;;;;;;;;;;4888573;29;20033;-71
2021/12/21 05:44:22;;;;;;;14.45;5.18;;;;;;;;;;4887583;29;20104;-72
2021/12/21 05:46:50;;;;;;;8.60;4.22;;;;;;;;;;4886691;29;20035;-70
2021/12/21 05:49:16;;;;;;;12.85;5.28;;;;;;;;;;4898264;29;20039;-71
2021/12/21 05:51:43;;;;;;;10.52;4.90;;;;;;;;;;4892105;29;20055;-72
2021/12/21 05:54:09;;;;;;;11.57;4.90;;;;;;;;;;4897665;29;20032;-71
2021/12/21 05:56:35;;;;;;;13.77;5.30;;;;;;;;;;4898357;29;20028;-70
2021/12/21 05:59:02;;;;;;;9.98;5.00;;;;;;;;;;4897875;29;20072;-71
2021/12/21 06:01:30;;;;;;;10.13;5.05;;;;;;;;;;4893882;29;20391;-72
2021/12/21 06:03:56;;;;;;;32.58;14.52;;;;;;;;;;4887548;29;20037;-73
2021/12/21 06:06:23;;;;;;;22.80;9.60;;;;;;;;;;4878392;29;20124;-71
2021/12/21 06:08:50;;;;;;;11.63;6.45;;;;;;;;;;4879053;29;20120;-71
2021/12/21 06:11:16;;;;;;;12.20;6.55;;;;;;;;;;4888983;29;20040;-73
2021/12/21 06:27:26;;;;;;;12.73;6.32;;;;;;;;;;4897807;29;20082;-71
2021/12/21 06:29:52;;;;;;;13.90;7.10;;;;;;;;;;4895534;29;20037;-71
2021/12/21 06:32:18;;;;;;;17.58;7.28;;;;;;;;;;4897285;29;20432;-71
2021/12/21 06:34:44;;;;;;;12.25;6.22;;;;;;;;;;4897212;29;20031;-69
2021/12/21 06:37:10;;;;;;;12.80;6.00;;;;;;;;;;4897378;29;20490;-71
2021/12/21 06:39:36;;;;;;;16.38;5.78;;;;;;;;;;4897342;29;20028;-70
2021/12/21 06:42:02;;;;;;;11.48;5.18;;;;;;;;;;4897305;29;20121;-69
2021/12/21 06:44:30;;;;;;;14.13;4.97;;;;;;;;;;4896980;29;20048;-70
2021/12/21 06:51:10;;;;;;;7.05;4.50;;;;;;;;;;4897279;29;20035;-72
2021/12/21 06:52:39;;;;;;;21.33;9.20;;;;;;;;;;4897564;29;20119;-71
2021/12/21 06:55:06;;;;;;;11.35;5.82;;;;;;;;;;4897309;29;20093;-72
2021/12/21 06:57:32;;;;;;;15.25;6.00;;;;;;;;;;4896727;29;20045;-71
2021/12/21 06:59:58;;;;;;;14.65;6.80;;;;;;;;;;4896640;29;20407;-70
2021/12/21 07:02:24;;;;;;;12.80;5.72;;;;;;;;;;4897142;29;20044;-70
2021/12/21 07:04:50;;;;;;;15.40;6.13;;;;;;;;;;4895870;29;20029;-70
2021/12/21 07:07:17;;;;;;;9.73;5.50;;;;;;;;;;4895489;29;20033;-70
2021/12/21 07:09:46;;;;;;;13.27;5.38;;;;;;;;;;4897014;29;20044;-70
2021/12/21 07:12:28;;;;;;;9.52;4.78;;;;;;;;;;4897220;29;20040;-70
2021/12/21 07:20:23;;;;;;;15.00;6.97;;;;;;;;;;4897020;29;20188;-69
2021/12/21 07:22:48;;;;;;;19.88;7.97;;;;;;;;;;4896827;29;20096;-69
2021/12/21 07:25:14;;;;;;;33.72;14.23;;;;;;;;;;4895590;29;20033;-70
2021/12/21 07:27:40;;;;;;;35.70;13.63;;;;;;;;;;4896592;29;20032;-70
2021/12/21 07:30:07;;;;;;;22.55;9.13;;;;;;;;;;4896869;29;20037;-71
2021/12/21 07:32:32;;;;;;;16.45;8.15;;;;;;;;;;4896856;29;20038;-70
2021/12/21 07:34:59;;;;;;;19.63;8.40;;;;;;;;;;4896396;29;20403;-71
2021/12/21 07:37:25;;;;;;;15.85;7.40;;;;;;;;;;4896519;29;20024;-70
2021/12/21 07:39:52;;;;;;;17.85;6.65;;;;;;;;;;4896562;29;20043;-71
2021/12/21 07:42:21;;;;;;;32.63;11.32;;;;;;;;;;4896724;29;20032;-71
2021/12/21 07:44:48;;;;;;;27.15;12.05;;;;;;;;;;4896479;29;20549;-71
2021/12/21 07:47:15;;;;;;;31.77;13.48;;;;;;;;;;4896352;29;20029;-70
2021/12/21 07:49:40;;;;;;;34.70;16.45;;;;;;;;;;4895686;29;20045;-70
2021/12/21 07:52:07;;;;;;;32.13;16.05;;;;;;;;;;4896505;29;20040;-72
2021/12/21 07:54:34;;;;;;;29.73;15.60;;;;;;;;;;4895314;29;20072;-70
2021/12/21 07:57:00;;;;;;;28.60;14.70;;;;;;;;;;4897905;29;20448;-70
2021/12/21 07:59:26;;;;;;;30.33;13.95;;;;;;;;;;4900153;29;20127;-70
2021/12/21 08:01:52;;;;;;;23.35;11.13;;;;;;;;;;4899936;29;20044;-71
2021/12/21 08:04:21;;;;;;;23.17;10.05;;;;;;;;;;4898915;29;20483;-71
2021/12/21 08:06:49;;;;;;;15.63;8.50;;;;;;;;;;4898741;29;20040;-71
2021/12/21 08:09:15;;;;;;;18.10;8.90;;;;;;;;;;4899039;29;20072;-73
2021/12/21 08:14:07;;;;;;;20.10;8.23;;;;;;;;;;4899392;29;20451;-71
2021/12/21 08:16:33;;;;;;;33.25;11.00;;;;;;;;;;4898851;29;20099;-71
2021/12/21 08:18:59;;;;;;;30.02;12.82;;;;;;;;;;4895229;29;20084;-71
2021/12/21 08:21:26;;;;;;;25.90;12.55;;;;;;;;;;4896321;29;20424;-71
2021/12/21 08:23:52;;;;;;;27.02;13.20;;;;;;;;;;4899590;29;20044;-71
2021/12/21 08:26:18;;;;;;;21.05;10.65;;;;;;;;;;4899384;29;20045;-71
2021/12/21 08:28:44;;;;;;;15.98;6.38;;;;;;;;;;4890800;29;20045;-69
2021/12/21 08:31:13;;;;;;;12.52;5.03;;;;;;;;;;4888970;29;20043;-71
2021/12/21 08:33:41;;;;;;;7.28;2.53;;;;;;;;;;4880518;29;20564;-71
2021/12/21 08:36:08;;;;;;;6.30;2.47;;;;;;;;;;4880436;29;20343;-69
2021/12/21 08:38:37;;;;;;;4.78;2.30;;;;;;;;;;4879970;29;20044;-73
2021/12/21 08:41:03;;;;;;;4.25;2.28;;;;;;;;;;4894669;29;20033;-75
2021/12/21 08:43:31;;;;;;;4.35;2.20;;;;;;;;;;4880101;29;20041;-71
2021/12/21 08:45:57;;;;;;;6.00;2.60;;;;;;;;;;4879956;29;20033;-73
2021/12/21 08:48:25;;;;;;;4.05;1.98;;;;;;;;;;4879174;29;20067;-70
2021/12/21 08:50:54;;;;;;;7.20;3.15;;;;;;;;;;4880580;29;20108;-71
2021/12/21 08:53:22;;;;;;;4.50;2.47;;;;;;;;;;4896998;29;20080;-70
2021/12/21 08:55:48;;;;;;;6.32;2.53;;;;;;;;;;4892006;29;20057;-70
2021/12/21 08:58:14;;;;;;;3.05;1.77;;;;;;;;;;4880144;29;20511;-71
2021/12/21 09:00:41;;;;;;;3.83;2.40;;;;;;;;;;4880099;29;20108;-70
2021/12/21 09:03:07;;;;;;;8.07;2.38;;;;;;;;;;4891082;29;20100;-69
2021/12/21 09:05:34;;;;;;;3.40;1.92;;;;;;;;;;4890080;29;20119;-70
2021/12/21 09:08:04;;;;;;;5.63;2.38;;;;;;;;;;4912324;29;20048;-68
2021/12/21 09:10:31;;;;;;;4.70;2.78;;;;;;;;;;4912621;29;20472;-71
2021/12/21 09:12:57;;;;;;;4.85;2.40;;;;;;;;;;4898561;29;20041;-68
2021/12/21 09:15:25;;;;;;;11.23;2.35;;;;;;;;;;4898489;29;20047;-70
2021/12/21 09:17:51;;;;;;;6.75;3.10;;;;;;;;;;4890843;29;20392;-68
2021/12/21 09:20:20;;;;;;;6.88;3.30;;;;;;;;;;4880173;29;20037;-69
2021/12/21 09:22:48;;;;;;;4.85;2.50;;;;;;;;;;4889103;29;20036;-68
2021/12/21 09:25:14;;;;;;;5.43;2.63;;;;;;;;;;4895715;29;20133;-68
2021/12/21 09:27:40;;;;;;;5.22;2.38;;;;;;;;;;4904745;29;20124;-69
2021/12/21 09:30:09;;;;;;;5.72;2.72;;;;;;;;;;4898502;29;20437;-68
2021/12/21 09:32:35;;;;;;;5.85;2.17;;;;;;;;;;4898763;29;20500;-69
2021/12/21 09:35:01;;;;;;;6.65;3.38;;;;;;;;;;4898388;29;20036;-67
2021/12/21 09:37:27;;;;;;;4.90;2.72;;;;;;;;;;4898924;29;20020;-68
2021/12/21 09:39:55;;;;;;;6.95;2.50;;;;;;;;;;4898720;29;20862;-67
2021/12/21 09:42:27;;;;;;;5.45;2.95;;;;;;;;;;4898222;29;20131;-68
2021/12/21 09:44:53;;;;;;;6.80;2.60;;;;;;;;;;4898565;29;20032;-67
2021/12/21 09:47:19;;;;;;;10.05;3.00;;;;;;;;;;4898758;29;20024;-67
2021/12/21 09:49:47;;;;;;;6.35;2.88;;;;;;;;;;4898525;29;20555;-67
2021/12/21 09:52:18;;;;;;;6.82;3.30;;;;;;;;;;4912936;29;20036;-69
2021/12/21 09:54:45;;;;;;;6.97;3.00;;;;;;;;;;4891647;29;20028;-68
2021/12/21 09:57:13;;;;;;;8.27;2.83;;;;;;;;;;4913907;29;20024;-67
2021/12/21 09:59:39;;;;;;;7.90;2.42;;;;;;;;;;4897859;29;20064;-69
2021/12/21 10:02:05;;;;;;;6.57;2.80;;;;;;;;;;4896413;29;20020;-69
2021/12/21 10:04:31;;;;;;;6.70;2.65;;;;;;;;;;4897593;29;20036;-70
2021/12/21 10:06:57;;;;;;;4.82;2.38;;;;;;;;;;4897381;29;20038;-71
2021/12/21 10:09:33;;;;;;;7.65;2.80;;;;;;;;;;4891856;29;20087;-69
2021/12/21 10:11:59;;;;;;;6.00;2.17;;;;;;;;;;4889982;29;20520;-70
2021/12/21 10:14:26;;;;;;;5.53;2.95;;;;;;;;;;4877224;29;20029;-69
2021/12/21 10:17:04;;;;;;;6.25;2.50;;;;;;;;;;4877244;29;20497;-69
2021/12/21 10:19:30;;;;;;;3.67;2.45;;;;;;;;;;4884154;29;20045;-69
2021/12/21 10:21:55;;;;;;;6.28;3.47;;;;;;;;;;4877404;29;20076;-70
2021/12/21 10:24:27;;;;;;;3.95;2.60;;;;;;;;;;4877234;29;20064;-70
2021/12/21 10:27:06;;;;;;;6.05;2.65;;;;;;;;;;4878269;29;20144;-69
2021/12/21 10:29:41;;;;;;;9.35;3.55;;;;;;;;;;4878703;29;20045;-70
2021/12/21 10:32:28;;;;;;;9.13;3.63;;;;;;;;;;4889948;29;20084;-68
2021/12/21 10:35:00;;;;;;;4.75;2.47;;;;;;;;;;4890623;29;20373;-68
2021/12/21 10:37:32;;;;;;;6.68;3.22;;;;;;;;;;4896900;29;20037;-70
2021/12/21 10:40:26;;;;;;;9.52;2.75;;;;;;;;;;4893993;29;20041;-68
2021/12/21 10:42:55;;;;;;;;;;;;;;;;;;4879084;29;20060;-71
2021/12/21 10:45:36;;;;;;;6.68;3.00;;;;;;;;;;4876735;29;19937;-69
2021/12/21 10:48:05;;;;;;;7.20;2.78;;;;;;;;;;4877881;29;20085;-71
2021/12/21 10:50:33;;;;;;;9.25;2.50;;;;;;;;;;4878480;29;20066;-70
2021/12/21 10:53:00;;;;;;;11.52;3.25;;;;;;;;;;4879316;29;20037;-70
2021/12/21 10:55:32;;;;;;;6.55;2.80;;;;;;;;;;4878374;29;20052;-71
2021/12/21 10:58:15;;;;;;;6.70;3.50;;;;;;;;;;4878223;29;20033;-68
2021/12/21 11:00:47;;;;;;;5.87;2.50;;;;;;;;;;4885278;29;20103;-70
2021/12/21 11:03:17;;;;;;;8.45;2.85;;;;;;;;;;4896951;29;20275;-69
2021/12/21 11:05:46;;;;;;;8.55;2.80;;;;;;;;;;4896302;29;20100;-69
2021/12/21 11:08:27;;;;;;;7.53;2.80;;;;;;;;;;4896612;29;20100;-71
2021/12/21 11:10:58;;;;;;;4.18;2.30;;;;;;;;;;4896231;29;20096;-71
2021/12/21 11:13:24;;;;;;;7.03;3.17;;;;;;;;;;4896322;29;20087;-71
2021/12/21 11:15:53;;;;;;;4.78;2.63;;;;;;;;;;4895687;29;20052;-71
2021/12/21 11:18:21;;;;;;;6.38;2.88;;;;;;;;;;4896054;29;20043;-70
2021/12/21 11:20:51;;;;;;;6.25;2.85;;;;;;;;;;4896478;29;20083;-70
2021/12/21 11:23:20;;;;;;;9.00;3.25;;;;;;;;;;4896390;29;20037;-69
2021/12/21 11:25:48;;;;;;;5.30;3.58;;;;;;;;;;4895051;29;20032;-71
2021/12/21 11:28:17;;;;;;;4.75;2.72;;;;;;;;;;4896137;29;20473;-70
2021/12/21 11:30:43;;;;;;;4.00;2.33;;;;;;;;;;4896319;29;20029;-70
2021/12/21 11:33:11;;;;;;;5.30;2.65;;;;;;;;;;4897319;29;20040;-68
2021/12/21 11:38:10;;;;;;;6.25;3.03;;;;;;;;;;4881140;29;20051;-71
2021/12/21 11:40:42;;;;;;;6.20;3.58;;;;;;;;;;4879592;29;20084;-68
2021/12/21 11:43:27;;;;;;;13.27;5.65;;;;;;;;;;4881410;29;20495;-69
2021/12/21 11:46:13;;;;;;;5.35;3.00;;;;;;;;;;4880810;29;20122;-69
2021/12/21 11:48:49;;;;;;;6.22;3.03;;;;;;;;;;4881478;29;20112;-69
2021/12/21 11:51:16;;;;;;;5.60;3.15;;;;;;;;;;4880994;29;20033;-69
2021/12/21 11:53:42;;;;;;;6.32;3.47;;;;;;;;;;4881237;29;20029;-68
2021/12/21 11:56:16;;;;;;;7.50;2.83;;;;;;;;;;4881095;29;20044;-70
2021/12/21 11:58:42;;;;;;;6.75;3.60;;;;;;;;;;4880262;29;20124;-68
2021/12/21 12:01:23;;;;;;;5.45;3.03;;;;;;;;;;4879501;29;20136;-69
2021/12/21 12:03:59;;;;;;;12.82;3.47;;;;;;;;;;4890655;29;20036;-72
2021/12/21 12:06:26;;;;;;;5.85;2.80;;;;;;;;;;4899149;29;20043;-69
2021/12/21 12:08:59;;;;;;;7.20;3.17;;;;;;;;;;4899711;29;20047;-69
2021/12/21 12:11:28;;;;;;;4.97;3.28;;;;;;;;;;4899690;29;20078;-72
2021/12/21 12:14:11;;;;;;;6.38;3.70;;;;;;;;;;4914523;29;20064;-69
2021/12/21 12:16:45;;;;;;;5.63;2.97;;;;;;;;;;4897698;29;20549;-71
2021/12/21 12:19:16;;;;;;;6.93;3.20;;;;;;;;;;4899898;29;20037;-71
2021/12/21 12:21:57;;;;;;;9.27;3.22;;;;;;;;;;4899726;29;20047;-70
2021/12/21 12:24:25;;;;;;;10.75;4.35;;;;;;;;;;4894236;29;20115;-68
2021/12/21 12:27:01;;;;;;;8.55;3.58;;;;;;;;;;4899377;29;20024;-69
2021/12/21 12:29:28;;;;;;;5.60;3.10;;;;;;;;;;4897624;29;20064;-73
2021/12/21 12:32:00;;;;;;;6.93;3.17;;;;;;;;;;4894195;29;20033;-69
2021/12/21 12:34:31;;;;;;;7.30;3.00;;;;;;;;;;4886366;29;20151;-69
2021/12/21 12:36:58;;;;;;;7.15;3.25;;;;;;;;;;4899404;29;20124;-69
2021/12/21 12:39:37;;;;;;;7.03;3.40;;;;;;;;;;4900761;29;20052;-70
2021/12/21 12:42:05;;;;;;;9.13;3.75;;;;;;;;;;4898911;29;20151;-69
2021/12/21 12:44:32;;;;;;;6.72;3.63;;;;;;;;;;4895668;29;20055;-70
2021/12/21 12:47:02;;;;;;;8.07;3.70;;;;;;;;;;4895564;29;20171;-70
2021/12/21 12:49:32;;;;;;;8.02;3.53;;;;;;;;;;4894359;29;20395;-71
2021/12/21 12:52:07;;;;;;;10.95;3.90;;;;;;;;;;4897945;29;20028;-69
2021/12/21 12:54:47;;;;;;;7.75;3.90;;;;;;;;;;4896988;29;20040;-70
2021/12/21 12:57:34;;;;;;;5.85;3.05;;;;;;;;;;4897419;29;20048;-71
2021/12/21 13:00:18;;;;;;;5.25;2.90;;;;;;;;;;4898859;29;20084;-70
2021/12/21 13:03:14;;;;;;;5.35;2.85;;;;;;;;;;4897281;29;20044;-71
2021/12/21 13:05:52;;;;;;;11.13;4.40;;;;;;;;;;4896716;29;20496;-70
2021/12/21 13:08:25;;;;;;;5.55;2.92;;;;;;;;;;4897675;29;20085;-70
2021/12/21 13:10:53;;;;;;;5.07;2.70;;;;;;;;;;4897892;29;20071;-70
2021/12/21 13:13:20;;;;;;;4.85;3.20;;;;;;;;;;4893919;29;20037;-70
2021/12/21 13:15:50;;;;;;;8.73;3.17;;;;;;;;;;4879325;29;20045;-69
2021/12/21 13:18:19;;;;;;;10.25;3.75;;;;;;;;;;4879032;29;20039;-70
2021/12/21 13:20:51;;;;;;;6.82;3.92;;;;;;;;;;4878031;29;20484;-71
2021/12/21 13:23:23;;;;;;;10.70;4.43;;;;;;;;;;4881080;29;20433;-71
2021/12/21 13:26:01;;;;;;;5.82;2.70;;;;;;;;;;4898110;29;20047;-70
2021/12/21 13:28:30;;;;;;;9.35;3.70;;;;;;;;;;4913766;29;20120;-69
2021/12/21 13:30:57;;;;;;;5.65;3.30;;;;;;;;;;4916728;29;20111;-72
2021/12/21 13:33:26;;;;;;;11.25;3.60;;;;;;;;;;4915817;29;20519;-71
2021/12/21 13:35:58;;;;;;;4.03;2.70;;;;;;;;;;4916320;29;20032;-71
2021/12/21 13:38:27;;;;;;;10.30;3.30;;;;;;;;;;4916488;29;20036;-72
2021/12/21 13:41:11;;;;;;;5.18;2.85;;;;;;;;;;4915987;29;20028;-71
2021/12/21 13:43:58;;;;;;;5.55;3.05;;;;;;;;;;4896491;29;20032;-70
2021/12/21 13:46:24;;;;;;;7.45;3.38;;;;;;;;;;4892418;29;20103;-69
2021/12/21 13:48:56;;;;;;;11.05;4.60;;;;;;;;;;4891602;29;20034;-69
2021/12/21 13:51:23;;;;;;;14.18;4.57;;;;;;;;;;4895325;29;20471;-69
2021/12/21 13:53:54;;;;;;;10.30;4.57;;;;;;;;;;4897206;29;20415;-68
2021/12/21 13:56:26;;;;;;;6.45;3.97;;;;;;;;;;4889023;29;20071;-68
2021/12/21 13:58:56;;;;;;;7.13;3.47;;;;;;;;;;4879040;29;20069;-68
2021/12/21 14:01:26;;;;;;;12.00;7.60;;;;;;;;;;4879265;29;20496;-68
2021/12/21 14:03:56;;;;;;;4.32;2.80;;;;;;;;;;4879193;29;20029;-68
2021/12/21 14:06:24;;;;;;;25.23;11.38;;;;;;;;;;4878941;29;20048;-68
2021/12/21 14:08:56;;;;;;;12.82;5.55;;;;;;;;;;4879765;29;20737;-70
2021/12/21 14:11:30;;;;;;;5.85;3.30;;;;;;;;;;4893449;29;20045;-69
2021/12/21 14:13:58;;;;;;;7.88;3.72;;;;;;;;;;4891633;29;20270;-69
2021/12/21 14:16:29;;;;;;;8.55;4.47;;;;;;;;;;4888595;29;20384;-75
2021/12/21 14:18:57;;;;;;;9.18;3.83;;;;;;;;;;4879229;29;20041;-70
2021/12/21 14:21:27;;;;;;;9.23;4.50;;;;;;;;;;4879421;29;20029;-70
2021/12/21 14:23:56;;;;;;;10.38;4.07;;;;;;;;;;4897126;29;20045;-70
2021/12/21 14:26:26;;;;;;;10.80;3.92;;;;;;;;;;4897651;29;20028;-69
2021/12/21 14:28:58;;;;;;;7.40;3.80;;;;;;;;;;4897851;29;20100;-70
2021/12/21 14:31:30;;;;;;;7.32;3.70;;;;;;;;;;4897106;29;20032;-71
2021/12/21 14:34:01;;;;;;;10.65;3.65;;;;;;;;;;4896706;29;20067;-70
2021/12/21 14:36:27;;;;;;;8.93;3.88;;;;;;;;;;4895623;29;20095;-72
2021/12/21 14:38:58;;;;;;;12.75;4.15;;;;;;;;;;4896029;29;20035;-74
2021/12/21 14:41:34;;;;;;;5.80;3.30;;;;;;;;;;4901540;29;20040;-74
2021/12/21 14:44:01;;;;;;;8.73;3.28;;;;;;;;;;4895198;29;20071;-68
2021/12/21 14:46:27;;;;;;;6.82;3.72;;;;;;;;;;4880301;29;20040;-69
2021/12/21 14:49:03;;;;;;;12.45;3.90;;;;;;;;;;4879830;29;20044;-69
2021/12/21 14:51:37;;;;;;;7.40;3.55;;;;;;;;;;4897536;29;20040;-73
2021/12/21 14:54:07;;;;;;;5.85;3.65;;;;;;;;;;4893668;29;20041;-71
2021/12/21 14:56:36;;;;;;;9.30;4.05;;;;;;;;;;4886816;29;20464;-72
2021/12/21 14:59:06;;;;;;;6.57;4.22;;;;;;;;;;4878440;29;20459;-71
2021/12/21 15:01:41;;;;;;;8.02;4.22;;;;;;;;;;4879139;29;20497;-71
2021/12/21 15:04:17;;;;;;;9.70;4.68;;;;;;;;;;4895967;29;20029;-72
2021/12/21 15:06:44;;;;;;;9.63;5.30;;;;;;;;;;4896994;29;20049;-70
2021/12/21 15:09:09;;;;;;;7.95;5.30;;;;;;;;;;4897140;29;20416;-70
2021/12/21 15:11:35;;;;;;;9.07;4.70;;;;;;;;;;4896715;29;20032;-71
2021/12/21 15:14:01;;;;;;;8.77;4.53;;;;;;;;;;4889950;29;20139;-69
2021/12/21 15:16:27;;;;;;;14.23;4.10;;;;;;;;;;4887599;29;20033;-72
2021/12/21 15:18:52;;;;;;;11.82;4.80;;;;;;;;;;4894089;29;20035;-71
2021/12/21 15:21:18;;;;;;;10.80;6.55;;;;;;;;;;4894397;29;20084;-71
2021/12/21 15:23:44;;;;;;;11.85;7.90;;;;;;;;;;4897388;29;20016;-70
2021/12/21 15:26:10;;;;;;;12.57;8.00;;;;;;;;;;4894806;29;20028;-70
2021/12/21 15:28:35;;;;;;;8.40;4.95;;;;;;;;;;4887281;29;20021;-72
2021/12/21 15:31:01;;;;;;;8.48;4.78;;;;;;;;;;4896426;29;20483;-70
2021/12/21 15:33:27;;;;;;;7.55;3.03;;;;;;;;;;4890250;29;20037;-70
2021/12/21 15:35:53;;;;;;;11.00;3.58;;;;;;;;;;4899458;29;20040;-71
2021/12/21 15:38:18;;;;;;;7.68;3.70;;;;;;;;;;4927369;29;20167;-72
2021/12/21 15:40:44;;;;;;;13.05;4.47;;;;;;;;;;4914609;29;20036;-70
2021/12/21 15:43:10;;;;;;;5.88;2.72;;;;;;;;;;4914632;29;20472;-70
2021/12/21 15:45:36;;;;;;;10.90;2.88;;;;;;;;;;4914051;29;20040;-72
2021/12/21 15:48:02;;;;;;;6.10;3.33;;;;;;;;;;4914792;29;20028;-71
2021/12/21 15:50:31;;;;;;;5.05;2.95;;;;;;;;;;4914585;29;20032;-71
2021/12/21 15:52:57;;;;;;;5.68;3.33;;;;;;;;;;4890996;29;20124;-74
2021/12/21 15:55:23;;;;;;;6.05;2.38;;;;;;;;;;4874654;29;20033;-74
2021/12/21 15:57:49;;;;;;;4.85;2.78;;;;;;;;;;4902792;29;20068;-73
2021/12/21 16:00:18;;;;;;;7.80;3.33;;;;;;;;;;4887706;29;20125;-74